Time;durP1;ratioP1;P1;durP2;ratioP2;P2;SDS_P1;SDS_P2;PMS_P1;PMS_P2;Temp;Humidity;BMP_temperature;BMP_pressure;BME280_temperature;BME280_humidity;BME280_pressure;Samples;Min_cycle;Max_cycle;Signal;HPM_P1;HPM_P2
2021/09/15 00:00:39;;;;;;;4.00;3.40;;;20.30;98.00;;;;;;5011593;28;20871;-72
2021/09/15 00:03:06;;;;;;;2.70;1.83;;;20.40;98.00;;;;;;5011658;28;20459;-73
2021/09/15 00:05:33;;;;;;;3.00;2.00;;;20.30;98.00;;;;;;5011422;28;20513;-72
2021/09/15 00:08:01;;;;;;;1.50;1.50;;;20.20;98.00;;;;;;5011479;28;20459;-73
2021/09/15 00:10:28;;;;;;;2.23;1.80;;;20.20;98.00;;;;;;5011403;28;21016;-73
2021/09/15 00:12:55;;;;;;;2.37;1.60;;;20.20;98.00;;;;;;5011403;28;20460;-72
2021/09/15 00:15:22;;;;;;;2.30;1.83;;;20.40;98.00;;;;;;5011354;28;20463;-72
2021/09/15 00:17:49;;;;;;;1.80;1.50;;;20.40;98.00;;;;;;5010832;28;20516;-72
2021/09/15 00:20:16;;;;;;;1.80;1.43;;;20.40;98.00;;;;;;5011156;28;20961;-73
2021/09/15 00:22:43;;;;;;;2.70;1.73;;;20.40;98.00;;;;;;5011509;28;20516;-73
2021/09/15 00:25:12;;;;;;;3.27;1.90;;;20.40;98.00;;;;;;5011410;28;20459;-72
2021/09/15 00:27:39;;;;;;;1.57;1.40;;;20.40;98.00;;;;;;5011294;28;21024;-72
2021/09/15 00:30:08;;;;;;;2.57;1.93;;;20.40;98.00;;;;;;5011308;28;20841;-72
2021/09/15 00:32:35;;;;;;;3.50;2.20;;;20.40;98.00;;;;;;5011284;28;20883;-72
2021/09/15 00:35:02;;;;;;;3.57;2.40;;;20.40;98.00;;;;;;5011316;28;20463;-72
2021/09/15 00:37:29;;;;;;;2.10;1.80;;;20.50;98.00;;;;;;5011251;28;20901;-72
2021/09/15 00:39:56;;;;;;;2.83;2.00;;;20.50;98.00;;;;;;5011352;28;20460;-72
2021/09/15 00:42:24;;;;;;;2.80;1.60;;;20.50;98.00;;;;;;5011373;28;20941;-72
2021/09/15 00:44:52;;;;;;;1.87;1.60;;;20.30;98.00;;;;;;5011441;28;20506;-72
2021/09/15 00:47:19;;;;;;;1.87;1.70;;;20.20;98.00;;;;;;5011277;28;20459;-72
2021/09/15 00:49:46;;;;;;;2.07;1.80;;;20.20;98.00;;;;;;5011064;28;20484;-72
2021/09/15 00:52:13;;;;;;;2.30;2.13;;;20.20;98.00;;;;;;5011261;28;20459;-72
2021/09/15 00:54:42;;;;;;;3.40;1.50;;;20.40;98.00;;;;;;5011018;28;20471;-73
2021/09/15 00:57:09;;;;;;;2.27;2.03;;;20.40;98.00;;;;;;5010837;28;20495;-73
2021/09/15 00:59:38;;;;;;;2.13;1.50;;;20.40;98.00;;;;;;5011112;28;20491;-72
2021/09/15 01:02:06;;;;;;;2.30;1.50;;;20.40;98.00;;;;;;5010739;28;20901;-72
2021/09/15 01:04:33;;;;;;;3.30;1.90;;;20.40;98.00;;;;;;5010929;28;20487;-72
2021/09/15 01:07:00;;;;;;;2.60;2.03;;;20.40;98.00;;;;;;5010752;28;20530;-72
2021/09/15 01:09:27;;;;;;;1.97;1.60;;;20.40;98.00;;;;;;5010781;28;20503;-72
2021/09/15 01:11:55;;;;;;;2.67;1.97;;;20.50;98.00;;;;;;5010705;28;20513;-72
2021/09/15 01:14:22;;;;;;;1.87;1.70;;;20.40;98.00;;;;;;5010784;28;20813;-72
2021/09/15 01:16:53;;;;;;;3.03;1.80;;;20.30;98.00;;;;;;5010617;28;20494;-72
2021/09/15 01:19:23;;;;;;;1.70;1.57;;;20.10;98.00;;;;;;5010693;28;20454;-72
2021/09/15 01:21:53;;;;;;;2.30;1.90;;;20.00;98.00;;;;;;5010585;28;20464;-72
2021/09/15 01:24:21;;;;;;;2.40;1.83;;;19.90;98.00;;;;;;5010375;28;20922;-72
2021/09/15 01:26:48;;;;;;;1.50;1.47;;;19.90;98.00;;;;;;5010534;28;20505;-72
2021/09/15 01:29:16;;;;;;;2.03;1.90;;;20.10;98.00;;;;;;5010813;28;20488;-72
2021/09/15 01:31:59;;;;;;;2.10;1.97;;;20.10;98.00;;;;;;5014395;28;20510;-72
2021/09/15 01:34:27;;;;;;;2.33;1.50;;;20.00;98.00;;;;;;5014549;28;20517;-72
2021/09/15 01:36:56;;;;;;;2.67;1.90;;;20.00;98.00;;;;;;5014385;28;20521;-72
2021/09/15 01:39:23;;;;;;;2.10;1.93;;;20.10;98.00;;;;;;5014139;28;20486;-72
2021/09/15 01:41:51;;;;;;;1.73;1.70;;;20.00;98.00;;;;;;5014178;28;20487;-73
2021/09/15 01:44:18;;;;;;;2.27;1.70;;;19.90;98.00;;;;;;5015211;28;20460;-73
2021/09/15 01:46:45;;;;;;;2.90;1.93;;;19.90;98.00;;;;;;5014908;28;20456;-72
2021/09/15 01:49:12;;;;;;;1.97;1.90;;;20.00;98.00;;;;;;5014222;28;20565;-72
2021/09/15 01:51:42;;;;;;;2.00;1.80;;;19.90;98.00;;;;;;5015102;28;20521;-72
2021/09/15 01:54:12;;;;;;;2.17;1.83;;;19.90;98.00;;;;;;5014376;28;20475;-72
2021/09/15 01:56:39;;;;;;;2.00;1.70;;;19.90;98.00;;;;;;5013951;28;20854;-72
2021/09/15 01:59:06;;;;;;;1.77;1.60;;;20.00;98.00;;;;;;5013871;28;20490;-72
2021/09/15 02:01:33;;;;;;;2.70;1.83;;;20.00;98.00;;;;;;5012379;28;20483;-72
2021/09/15 02:04:00;;;;;;;2.73;1.50;;;20.00;98.00;;;;;;5014001;28;20529;-73
2021/09/15 02:06:27;;;;;;;1.73;1.50;;;20.00;98.00;;;;;;5014176;28;20506;-72
2021/09/15 02:08:54;;;;;;;1.90;1.70;;;20.00;98.00;;;;;;5013807;28;20566;-73
2021/09/15 02:11:24;;;;;;;2.97;2.07;;;20.10;98.00;;;;;;5012563;28;20459;-72
2021/09/15 02:13:51;;;;;;;3.40;2.10;;;20.10;98.00;;;;;;5013517;28;20459;-72
2021/09/15 02:16:18;;;;;;;2.33;1.83;;;20.10;98.00;;;;;;5013554;28;21019;-73
2021/09/15 02:18:45;;;;;;;2.10;1.80;;;20.10;98.00;;;;;;5013301;28;20455;-73
2021/09/15 02:21:12;;;;;;;1.73;1.43;;;19.90;98.00;;;;;;5013390;28;20547;-72
2021/09/15 02:23:39;;;;;;;2.00;1.90;;;19.80;98.00;;;;;;5013361;28;20495;-73
2021/09/15 02:26:08;;;;;;;1.60;1.50;;;19.90;98.00;;;;;;5013336;28;20459;-73
2021/09/15 02:28:36;;;;;;;1.83;1.60;;;19.90;98.00;;;;;;5013284;28;21136;-72
2021/09/15 02:31:03;;;;;;;3.00;1.80;;;19.90;98.00;;;;;;5013349;28;20452;-72
2021/09/15 02:33:30;;;;;;;2.20;1.90;;;19.90;98.00;;;;;;5013304;28;20502;-73
2021/09/15 02:35:57;;;;;;;2.40;1.70;;;20.00;98.00;;;;;;5013075;28;20760;-72
2021/09/15 02:38:24;;;;;;;1.90;1.83;;;20.00;98.00;;;;;;5013044;28;20533;-73
2021/09/15 02:40:51;;;;;;;1.53;1.37;;;20.00;98.00;;;;;;5012355;28;20487;-72
2021/09/15 02:43:18;;;;;;;1.77;1.50;;;20.10;98.00;;;;;;5012885;28;20877;-73
2021/09/15 02:45:46;;;;;;;3.00;2.13;;;20.00;98.00;;;;;;5012963;28;20491;-73
2021/09/15 02:48:13;;;;;;;2.70;1.90;;;19.90;98.00;;;;;;5012862;28;20546;-73
2021/09/15 02:50:40;;;;;;;1.57;1.50;;;19.90;98.00;;;;;;5012834;28;20487;-72
2021/09/15 02:53:09;;;;;;;2.30;1.83;;;19.80;98.00;;;;;;5012628;28;20503;-72
2021/09/15 02:55:36;;;;;;;1.97;1.63;;;19.70;98.00;;;;;;5012757;28;20812;-73
2021/09/15 02:58:04;;;;;;;4.13;2.23;;;19.70;98.00;;;;;;5012720;28;20456;-73
2021/09/15 03:00:31;;;;;;;1.90;1.50;;;19.70;98.00;;;;;;5012713;28;20784;-72
2021/09/15 03:03:11;;;;;;;2.50;1.80;;;19.60;98.00;;;;;;5012645;28;20459;-73
2021/09/15 03:05:38;;;;;;;2.00;1.90;;;19.60;98.00;;;;;;5011425;28;20950;-72
2021/09/15 03:08:05;;;;;;;2.20;1.83;;;19.60;98.00;;;;;;5012773;28;20459;-72
2021/09/15 03:10:32;;;;;;;1.47;1.37;;;19.50;98.00;;;;;;5012414;28;20585;-72
2021/09/15 03:12:59;;;;;;;2.37;2.20;;;19.50;98.00;;;;;;5012514;28;20467;-72
2021/09/15 03:15:28;;;;;;;2.57;2.33;;;19.50;98.00;;;;;;5012656;28;20491;-73
2021/09/15 03:17:55;;;;;;;2.37;1.63;;;19.50;98.00;;;;;;5012484;28;20492;-72
2021/09/15 03:20:26;;;;;;;1.60;1.50;;;19.60;98.00;;;;;;5012376;28;21012;-73
2021/09/15 03:22:53;;;;;;;2.03;1.47;;;19.70;98.00;;;;;;5012346;28;20460;-73
2021/09/15 03:25:21;;;;;;;1.90;1.80;;;19.90;98.00;;;;;;5012308;28;20491;-73
2021/09/15 03:27:48;;;;;;;2.93;1.70;;;19.80;98.00;;;;;;5012328;28;20502;-72
2021/09/15 03:30:18;;;;;;;2.43;1.67;;;19.80;98.00;;;;;;5012181;28;20522;-72
2021/09/15 03:32:45;;;;;;;1.83;1.70;;;19.60;98.00;;;;;;5011209;28;20486;-73
2021/09/15 03:35:12;;;;;;;1.50;1.40;;;19.70;98.00;;;;;;5011991;28;20957;-73
2021/09/15 03:37:40;;;;;;;3.73;2.00;;;19.70;98.00;;;;;;5012188;28;20501;-73
2021/09/15 03:40:09;;;;;;;1.43;1.40;;;19.60;98.00;;;;;;5011704;28;20484;-73
2021/09/15 03:42:36;;;;;;;1.90;1.60;;;19.60;98.00;;;;;;5011924;28;20528;-74
2021/09/15 03:45:03;;;;;;;2.10;1.93;;;19.60;98.00;;;;;;5011746;28;20502;-74
2021/09/15 03:47:30;;;;;;;1.97;1.33;;;19.60;98.00;;;;;;5011752;28;20510;-73
2021/09/15 03:49:57;;;;;;;1.67;1.60;;;19.60;98.00;;;;;;5011432;28;21001;-73
2021/09/15 03:52:25;;;;;;;2.10;1.73;;;19.60;98.00;;;;;;5011880;28;20892;-73
2021/09/15 03:54:53;;;;;;;1.50;1.50;;;19.60;98.00;;;;;;5011416;28;20696;-73
2021/09/15 03:57:22;;;;;;;2.13;1.57;;;19.70;98.00;;;;;;5011710;28;20456;-73
2021/09/15 03:59:50;;;;;;;2.80;1.63;;;19.70;98.00;;;;;;5011224;28;20487;-73
2021/09/15 04:02:18;;;;;;;1.90;1.60;;;19.70;98.00;;;;;;5011467;28;20455;-73
2021/09/15 04:04:45;;;;;;;2.90;2.10;;;19.70;98.00;;;;;;5011419;28;20456;-73
2021/09/15 04:07:12;;;;;;;1.80;1.70;;;19.70;98.00;;;;;;5011372;28;20526;-73
2021/09/15 04:09:39;;;;;;;2.40;1.90;;;19.60;98.00;;;;;;5011473;28;21063;-73
2021/09/15 04:12:08;;;;;;;1.80;1.70;;;19.50;98.00;;;;;;5011359;28;20495;-73
2021/09/15 04:14:36;;;;;;;2.20;1.90;;;19.50;98.00;;;;;;5011438;28;20945;-73
2021/09/15 04:17:03;;;;;;;2.60;1.83;;;19.50;98.00;;;;;;5011308;28;20510;-73
2021/09/15 04:19:31;;;;;;;1.83;1.50;;;19.50;98.00;;;;;;5011404;28;20882;-73
2021/09/15 04:21:58;;;;;;;2.70;2.10;;;19.50;98.00;;;;;;5011137;28;20946;-73
2021/09/15 04:32:42;;;;;;;2.00;1.80;;;19.30;98.00;;;;;;5011451;28;20936;-73
2021/09/15 04:35:10;;;;;;;2.53;1.90;;;19.30;98.00;;;;;;5010999;28;21042;-73
2021/09/15 04:37:37;;;;;;;2.73;1.80;;;19.50;98.00;;;;;;5011212;28;20739;-73
2021/09/15 04:40:07;;;;;;;2.57;2.30;;;19.50;98.00;;;;;;5010856;28;20482;-73
2021/09/15 04:42:36;;;;;;;2.17;2.03;;;19.50;98.00;;;;;;5010461;28;20517;-73
2021/09/15 04:45:03;;;;;;;1.87;1.80;;;19.50;98.00;;;;;;5011077;28;20561;-73
2021/09/15 04:47:30;;;;;;;1.80;1.70;;;19.60;98.00;;;;;;5011280;28;20518;-73
2021/09/15 04:49:58;;;;;;;1.47;1.33;;;19.70;98.00;;;;;;5011185;28;20519;-73
2021/09/15 04:52:25;;;;;;;2.30;1.80;;;19.70;98.00;;;;;;5011237;28;20454;-73
2021/09/15 04:54:52;;;;;;;1.83;1.83;;;19.60;98.00;;;;;;5010692;28;20549;-73
2021/09/15 04:57:19;;;;;;;1.67;1.57;;;19.50;98.00;;;;;;5011138;28;20561;-73
2021/09/15 04:59:47;;;;;;;2.33;1.80;;;19.50;98.00;;;;;;5011030;28;20517;-73
2021/09/15 05:02:14;;;;;;;1.90;1.60;;;19.50;98.00;;;;;;5010983;28;21032;-73
2021/09/15 05:04:41;;;;;;;2.30;1.70;;;19.50;98.00;;;;;;5011868;28;20495;-72
2021/09/15 05:07:09;;;;;;;1.93;1.77;;;19.50;98.00;;;;;;5014699;28;20467;-73
2021/09/15 05:09:36;;;;;;;2.47;1.93;;;19.50;98.00;;;;;;5014647;28;20507;-73
2021/09/15 05:12:05;;;;;;;2.33;1.80;;;19.50;98.00;;;;;;5014748;28;20490;-73
2021/09/15 05:14:32;;;;;;;1.37;1.37;;;19.40;98.00;;;;;;5014641;28;21017;-73
2021/09/15 05:17:00;;;;;;;1.50;1.47;;;19.40;98.00;;;;;;5014608;28;20467;-73
2021/09/15 05:19:27;;;;;;;1.83;1.80;;;19.40;98.00;;;;;;5014587;28;20459;-73
2021/09/15 05:21:54;;;;;;;2.57;1.77;;;19.50;98.00;;;;;;5014790;28;20674;-73
2021/09/15 05:24:21;;;;;;;1.93;1.70;;;19.50;98.00;;;;;;5014536;28;20509;-73
2021/09/15 05:26:48;;;;;;;2.43;1.93;;;19.60;98.00;;;;;;5014394;28;20489;-73
2021/09/15 05:29:15;;;;;;;2.27;1.97;;;19.60;98.00;;;;;;5014215;28;20459;-72
2021/09/15 05:31:42;;;;;;;1.60;1.50;;;19.60;98.00;;;;;;5014031;28;20483;-73
2021/09/15 05:34:11;;;;;;;2.40;1.73;;;19.60;98.00;;;;;;5014252;28;20877;-73
2021/09/15 05:36:38;;;;;;;3.20;1.97;;;19.50;98.00;;;;;;5013999;28;20547;-73
2021/09/15 05:39:07;;;;;;;1.73;1.60;;;19.40;98.00;;;;;;5013109;28;20487;-73
2021/09/15 05:41:34;;;;;;;3.60;2.60;;;19.40;98.00;;;;;;5012706;28;20517;-73
2021/09/15 05:44:02;;;;;;;1.80;1.60;;;19.50;98.00;;;;;;5014079;28;20502;-73
2021/09/15 05:46:29;;;;;;;1.60;1.50;;;19.50;98.00;;;;;;5014091;28;20483;-72
2021/09/15 05:48:56;;;;;;;2.03;1.90;;;19.70;98.00;;;;;;5013863;28;20514;-73
2021/09/15 05:51:24;;;;;;;2.43;1.97;;;19.80;98.00;;;;;;5013852;28;20526;-73
2021/09/15 05:53:51;;;;;;;1.87;1.80;;;19.70;98.00;;;;;;5013819;28;20471;-72
2021/09/15 05:56:18;;;;;;;2.93;2.30;;;19.60;98.00;;;;;;5013750;28;20451;-73
2021/09/15 05:58:45;;;;;;;2.00;1.80;;;19.60;98.00;;;;;;5012848;28;20539;-73
2021/09/15 06:01:12;;;;;;;24.67;2.93;;;19.60;98.00;;;;;;5012582;28;20494;-73
2021/09/15 06:03:39;;;;;;;2.57;2.37;;;19.60;98.00;;;;;;5013828;28;20466;-74
2021/09/15 06:06:07;;;;;;;2.33;2.10;;;19.60;98.00;;;;;;5013779;28;20578;-75
2021/09/15 06:08:35;;;;;;;1.57;1.50;;;19.70;98.00;;;;;;5012558;28;20456;-75
2021/09/15 06:11:02;;;;;;;2.77;1.70;;;19.60;98.00;;;;;;5013487;28;20541;-74
2021/09/15 06:13:29;;;;;;;1.80;1.80;;;19.70;98.00;;;;;;5013792;28;20483;-74
2021/09/15 06:15:56;;;;;;;3.20;2.57;;;19.90;98.00;;;;;;5012258;28;20737;-74
2021/09/15 06:18:24;;;;;;;2.33;1.90;;;20.00;98.00;;;;;;5013432;28;20463;-74
2021/09/15 06:20:51;;;;;;;3.20;2.00;;;19.90;98.00;;;;;;5013247;28;20561;-74
2021/09/15 06:23:18;;;;;;;1.97;1.90;;;19.80;98.00;;;;;;5013405;28;20534;-74
2021/09/15 06:25:47;;;;;;;3.03;1.80;;;19.70;98.00;;;;;;5013150;28;20526;-74
2021/09/15 06:28:14;;;;;;;3.10;2.00;;;19.70;98.00;;;;;;5013127;28;20492;-73
2021/09/15 06:30:42;;;;;;;1.80;1.60;;;19.60;98.00;;;;;;5013062;28;20544;-74
2021/09/15 06:33:09;;;;;;;2.07;1.93;;;19.70;98.00;;;;;;5013284;28;20468;-74
2021/09/15 06:35:36;;;;;;;3.00;1.70;;;19.70;98.00;;;;;;5011617;28;21063;-74
2021/09/15 06:38:03;;;;;;;2.60;1.97;;;19.60;98.00;;;;;;5012944;28;20865;-74
2021/09/15 06:40:30;;;;;;;3.40;2.17;;;19.70;98.00;;;;;;5012897;28;20459;-75
2021/09/15 06:42:58;;;;;;;1.50;1.47;;;19.70;98.00;;;;;;5012778;28;20926;-75
2021/09/15 06:45:25;;;;;;;1.93;1.83;;;19.70;98.00;;;;;;5012940;28;21028;-75
2021/09/15 06:47:52;;;;;;;2.60;2.43;;;19.80;98.00;;;;;;5013079;28;20491;-75
2021/09/15 06:50:19;;;;;;;2.73;2.30;;;19.90;98.00;;;;;;5012802;28;20566;-75
2021/09/15 06:52:46;;;;;;;1.70;1.60;;;19.90;98.00;;;;;;5012540;28;21027;-75
2021/09/15 06:55:13;;;;;;;1.83;1.77;;;19.90;98.00;;;;;;5012493;28;20574;-75
2021/09/15 06:57:40;;;;;;;1.97;1.90;;;20.00;98.00;;;;;;5012543;28;20499;-75
2021/09/15 07:00:12;;;;;;;2.50;1.90;;;20.10;98.00;;;;;;5012394;28;20521;-75
2021/09/15 07:02:39;;;;;;;2.63;2.07;;;20.10;98.00;;;;;;5012588;28;20486;-75
2021/09/15 07:05:07;;;;;;;4.33;2.30;;;20.10;98.00;;;;;;5012583;28;20882;-74
2021/09/15 07:07:34;;;;;;;2.57;1.77;;;20.10;98.00;;;;;;5012390;28;20455;-75
2021/09/15 07:10:01;;;;;;;3.10;1.97;;;20.00;98.00;;;;;;5012342;28;20478;-75
2021/09/15 07:12:28;;;;;;;1.83;1.73;;;20.10;98.00;;;;;;5012285;28;20521;-74
2021/09/15 07:14:55;;;;;;;1.90;1.70;;;20.20;98.00;;;;;;5012339;28;20456;-75
2021/09/15 07:17:24;;;;;;;2.80;2.17;;;20.30;98.00;;;;;;5012103;28;20494;-76
2021/09/15 07:19:51;;;;;;;1.70;1.40;;;20.20;98.00;;;;;;5012072;28;20464;-75
2021/09/15 07:22:18;;;;;;;1.90;1.73;;;20.20;98.00;;;;;;5008466;28;20514;-75
2021/09/15 07:24:46;;;;;;;2.37;2.10;;;20.20;98.00;;;;;;5008305;28;21228;-79
2021/09/15 07:27:13;;;;;;;2.07;1.97;;;20.20;98.00;;;;;;5013270;28;20557;-77
2021/09/15 07:29:40;;;;;;;2.40;2.10;;;20.30;98.00;;;;;;5009631;28;20618;-77
2021/09/15 07:32:07;;;;;;;1.73;1.67;;;20.20;98.00;;;;;;5009440;28;20584;-75
2021/09/15 07:34:36;;;;;;;1.90;1.80;;;20.10;98.00;;;;;;5009244;28;20451;-75
2021/09/15 07:37:03;;;;;;;3.00;2.23;;;20.20;98.00;;;;;;5009184;28;20502;-75
2021/09/15 07:39:30;;;;;;;3.83;2.70;;;20.10;98.00;;;;;;5009212;28;20537;-75
2021/09/15 07:41:57;;;;;;;2.83;2.60;;;20.10;98.00;;;;;;5009229;28;20467;-76
2021/09/15 07:44:24;;;;;;;3.27;2.23;;;20.10;98.00;;;;;;5009200;28;20522;-76
2021/09/15 07:46:51;;;;;;;2.13;1.97;;;20.20;98.00;;;;;;5008946;28;21013;-76
2021/09/15 07:49:18;;;;;;;2.27;1.90;;;20.20;98.00;;;;;;5007187;28;20508;-76
2021/09/15 07:51:46;;;;;;;1.70;1.60;;;20.30;98.00;;;;;;5008931;28;20483;-76
2021/09/15 07:54:14;;;;;;;1.67;1.57;;;20.40;98.00;;;;;;5008621;28;20514;-76
2021/09/15 07:56:41;;;;;;;1.73;1.70;;;20.60;98.00;;;;;;5008705;28;20494;-76
2021/09/15 07:59:07;;;;;;;1.60;1.40;;;20.80;98.00;;;;;;5007592;28;20460;-76
2021/09/15 08:01:34;;;;;;;2.50;1.70;;;21.10;98.00;;;;;;5008664;28;20463;-76
2021/09/15 08:04:02;;;;;;;2.90;2.50;;;21.40;98.00;;;;;;5009456;28;20752;-76
2021/09/15 08:06:31;;;;;;;5.97;2.87;;;21.70;98.00;;;;;;5008755;28;20498;-75
2021/09/15 08:09:00;;;;;;;3.33;1.90;;;21.90;98.00;;;;;;5008635;28;20977;-76
2021/09/15 08:11:27;;;;;;;2.13;1.90;;;22.00;98.00;;;;;;5008184;28;20483;-76
2021/09/15 08:13:54;;;;;;;1.80;1.67;;;22.10;98.00;;;;;;5008514;28;20456;-76
2021/09/15 08:16:21;;;;;;;4.70;2.23;;;22.20;98.00;;;;;;5008659;28;20534;-76
2021/09/15 08:18:50;;;;;;;2.40;2.07;;;22.30;98.00;;;;;;5008442;28;20448;-75
2021/09/15 08:21:16;;;;;;;3.23;1.87;;;22.20;98.00;;;;;;5000599;28;20472;-75
2021/09/15 08:23:43;;;;;;;1.87;1.80;;;22.10;98.00;;;;;;5007387;28;20513;-76
2021/09/15 08:26:12;;;;;;;2.40;1.97;;;22.20;98.00;;;;;;5008662;28;20456;-76
2021/09/15 08:28:39;;;;;;;4.20;3.00;;;22.00;98.00;;;;;;5007563;28;20468;-76
2021/09/15 08:31:09;;;;;;;3.30;2.20;;;21.90;98.00;;;;;;5008577;28;20566;-76
2021/09/15 08:33:40;;;;;;;1.70;1.50;;;21.70;98.00;;;;;;5008656;28;20895;-76
2021/09/15 08:36:07;;;;;;;2.50;1.83;;;21.50;98.00;;;;;;4991494;28;20463;-76
2021/09/15 08:38:35;;;;;;;2.67;2.27;;;21.30;98.00;;;;;;5000215;28;20460;-76
2021/09/15 08:41:02;;;;;;;2.07;1.70;;;21.20;98.00;;;;;;5007878;28;20463;-79
2021/09/15 08:43:33;;;;;;;1.77;1.73;;;21.10;98.00;;;;;;5008785;28;20479;-76
2021/09/15 08:46:02;;;;;;;1.50;1.40;;;21.10;98.00;;;;;;5008388;28;20479;-75
2021/09/15 08:48:34;;;;;;;3.40;1.80;;;21.00;98.00;;;;;;4999223;28;20451;-77
2021/09/15 08:51:02;;;;;;;4.00;1.83;;;21.00;98.00;;;;;;5006068;28;20491;-76
2021/09/15 08:53:29;;;;;;;2.37;1.90;;;20.90;98.00;;;;;;5008276;28;20554;-76
2021/09/15 08:55:56;;;;;;;1.63;1.50;;;20.80;98.00;;;;;;5008141;28;20509;-77
2021/09/15 08:58:23;;;;;;;2.50;1.87;;;20.80;98.00;;;;;;5008168;28;20467;-76
2021/09/15 09:00:52;;;;;;;1.93;1.63;;;20.70;98.00;;;;;;5005862;28;20472;-76
2021/09/15 09:03:19;;;;;;;3.33;2.30;;;20.80;98.00;;;;;;5006663;28;20487;-76
2021/09/15 09:05:46;;;;;;;2.47;2.30;;;20.70;98.00;;;;;;5006927;28;20462;-76
2021/09/15 09:08:29;;;;;;;3.20;1.97;;;20.80;98.00;;;;;;5007177;28;20953;-76
2021/09/15 09:10:58;;;;;;;1.63;1.60;;;20.90;98.00;;;;;;5002916;28;20475;-76
2021/09/15 09:13:36;;;;;;;2.53;1.80;;;20.90;98.00;;;;;;5006899;28;20460;-75
2021/09/15 09:16:06;;;;;;;2.47;2.20;;;20.70;98.00;;;;;;5004271;28;20803;-76
2021/09/15 09:18:57;;;;;;;2.30;1.90;;;20.70;98.00;;;;;;5007383;28;20645;-76
2021/09/15 09:21:26;;;;;;;3.03;1.90;;;20.60;98.00;;;;;;5007147;28;20459;-76
2021/09/15 09:24:06;;;;;;;1.67;1.63;;;20.50;98.00;;;;;;5006108;28;20455;-76
2021/09/15 09:26:54;;;;;;;1.77;1.47;;;20.40;98.00;;;;;;5007269;28;20824;-76
2021/09/15 09:29:23;;;;;;;1.90;1.83;;;20.50;98.00;;;;;;5006644;28;20525;-75
2021/09/15 09:32:06;;;;;;;1.57;1.50;;;20.50;98.00;;;;;;5008274;28;20506;-76
2021/09/15 09:34:42;;;;;;;1.50;1.50;;;20.60;98.00;;;;;;5004768;28;20463;-76
2021/09/15 09:37:16;;;;;;;1.90;1.53;;;20.60;98.00;;;;;;5008215;28;20551;-76
2021/09/15 09:39:45;;;;;;;1.87;1.40;;;20.60;98.00;;;;;;5007142;28;20848;-76
2021/09/15 09:42:38;;;;;;;1.53;1.43;;;20.50;98.00;;;;;;5005521;28;20474;-76
2021/09/15 09:45:14;;;;;;;2.40;1.50;;;20.40;98.00;;;;;;5006943;28;20448;-76
2021/09/15 09:47:43;;;;;;;1.53;1.40;;;20.30;98.00;;;;;;5007017;28;20455;-76
2021/09/15 09:50:13;;;;;;;1.30;1.30;;;20.30;98.00;;;;;;5004517;28;20506;-76
2021/09/15 09:53:01;;;;;;;1.80;1.50;;;20.40;98.00;;;;;;5010237;28;20901;-76
2021/09/15 09:55:29;;;;;;;1.77;1.57;;;20.40;98.00;;;;;;5009712;28;20482;-75
2021/09/15 09:57:56;;;;;;;2.07;1.50;;;20.30;98.00;;;;;;5010533;28;20459;-74
2021/09/15 10:00:24;;;;;;;3.40;1.30;;;20.10;98.00;;;;;;5009613;28;20463;-74
2021/09/15 10:02:53;;;;;;;1.60;1.40;;;20.10;98.00;;;;;;5010207;28;20871;-74
2021/09/15 10:05:22;;;;;;;1.80;1.73;;;20.10;98.00;;;;;;5009823;28;20549;-74
2021/09/15 10:07:51;;;;;;;1.50;1.50;;;20.10;98.00;;;;;;5013142;28;20492;-75
2021/09/15 10:10:19;;;;;;;1.90;1.53;;;20.20;98.00;;;;;;5011283;28;20517;-74
2021/09/15 10:12:49;;;;;;;1.20;1.20;;;20.20;98.00;;;;;;5010193;28;20499;-75
2021/09/15 10:15:19;;;;;;;1.50;1.30;;;20.20;98.00;;;;;;5009790;28;20548;-74
2021/09/15 10:17:49;;;;;;;2.10;1.70;;;20.20;98.00;;;;;;5010897;28;20937;-74
2021/09/15 10:20:22;;;;;;;2.43;1.70;;;20.30;98.00;;;;;;5010920;28;20463;-75
2021/09/15 10:22:49;;;;;;;2.80;1.60;;;20.20;98.00;;;;;;5009631;28;20973;-74
2021/09/15 10:25:17;;;;;;;1.80;1.67;;;20.30;98.00;;;;;;5011036;28;20483;-75
2021/09/15 10:28:04;;;;;;;1.40;1.30;;;20.40;98.00;;;;;;5009435;28;20823;-74
2021/09/15 10:30:49;;;;;;;1.63;1.47;;;20.40;98.00;;;;;;5010771;28;20961;-75
2021/09/15 10:33:47;;;;;;;1.77;1.50;;;20.60;98.00;;;;;;5010712;28;20483;-76
2021/09/15 10:36:41;;;;;;;2.17;2.03;;;20.80;98.00;;;;;;5005563;28;20456;-77
2021/09/15 10:39:09;;;;;;;3.27;1.90;;;20.90;98.00;;;;;;5009432;28;20452;-76
2021/09/15 10:41:39;;;;;;;2.73;1.93;;;20.90;98.00;;;;;;5008519;28;20454;-77
2021/09/15 10:44:07;;;;;;;1.30;1.30;;;20.90;98.00;;;;;;5010486;28;20833;-75
2021/09/15 10:46:36;;;;;;;1.40;1.20;;;21.00;98.00;;;;;;5010485;28;20879;-75
2021/09/15 10:49:36;;;;;;;1.50;1.47;;;21.00;98.00;;;;;;5010489;28;20562;-75
2021/09/15 10:52:27;;;;;;;1.57;1.40;;;21.00;98.00;;;;;;4989421;28;21003;-75
2021/09/15 10:54:55;;;;;;;2.00;1.73;;;21.00;98.00;;;;;;5010456;28;20886;-75
2021/09/15 10:57:30;;;;;;;1.97;1.40;;;21.00;98.00;;;;;;5010398;28;20543;-76
2021/09/15 10:59:59;;;;;;;1.87;1.50;;;20.90;98.00;;;;;;5010061;28;20498;-74
2021/09/15 11:02:28;;;;;;;3.20;1.50;;;20.90;98.00;;;;;;5009496;28;20472;-75
2021/09/15 11:04:56;;;;;;;1.60;1.50;;;20.90;98.00;;;;;;5009983;28;20898;-74
2021/09/15 11:08:01;;;;;;;1.83;1.50;;;20.90;98.00;;;;;;5010261;28;20525;-74
2021/09/15 11:10:45;;;;;;;1.73;1.50;;;20.90;98.00;;;;;;5010035;28;20513;-74
2021/09/15 11:13:13;;;;;;;1.33;1.23;;;20.90;98.00;;;;;;5007490;28;20523;-75
2021/09/15 11:15:42;;;;;;;1.83;1.80;;;20.90;98.00;;;;;;5009371;28;20849;-75
2021/09/15 11:18:20;;;;;;;1.80;1.70;;;21.00;98.00;;;;;;5010431;28;20550;-75
2021/09/15 11:20:53;;;;;;;4.10;1.73;;;20.90;98.00;;;;;;5008689;28;20521;-75
2021/09/15 11:23:24;;;;;;;2.17;1.40;;;20.90;98.00;;;;;;5008411;28;20459;-74
2021/09/15 11:25:52;;;;;;;1.97;1.70;;;21.00;98.00;;;;;;5009861;28;20455;-73
2021/09/15 11:28:22;;;;;;;1.93;1.80;;;21.00;98.00;;;;;;5010590;28;20969;-74
2021/09/15 11:31:00;;;;;;;2.03;1.40;;;21.00;98.00;;;;;;5010455;28;20529;-75
2021/09/15 11:33:28;;;;;;;1.93;1.60;;;21.00;98.00;;;;;;5011151;28;20497;-75
2021/09/15 11:35:57;;;;;;;1.37;1.33;;;21.00;98.00;;;;;;5010354;28;20521;-75
2021/09/15 11:38:27;;;;;;;2.00;1.30;;;21.00;98.00;;;;;;5009786;28;20542;-75
2021/09/15 11:41:04;;;;;;;1.40;1.27;;;21.00;98.00;;;;;;5009245;28;20472;-75
2021/09/15 11:43:31;;;;;;;2.03;1.77;;;21.10;98.00;;;;;;5009125;28;20532;-74
2021/09/15 11:45:58;;;;;;;2.23;1.90;;;21.20;98.00;;;;;;5008292;28;20880;-74
2021/09/15 11:48:27;;;;;;;2.03;1.70;;;21.30;98.00;;;;;;5009571;28;20468;-75
2021/09/15 11:50:54;;;;;;;1.50;1.30;;;21.30;98.00;;;;;;5007038;28;20452;-75
2021/09/15 11:53:22;;;;;;;1.70;1.60;;;21.30;98.00;;;;;;5009665;28;20935;-75
2021/09/15 11:56:00;;;;;;;1.50;1.40;;;21.20;98.00;;;;;;5009366;28;20463;-75
2021/09/15 11:58:27;;;;;;;2.30;1.70;;;21.30;98.00;;;;;;5009222;28;20463;-75
2021/09/15 12:01:02;;;;;;;1.50;1.30;;;21.20;98.00;;;;;;5009103;28;20878;-74
2021/09/15 12:03:31;;;;;;;2.00;1.43;;;21.20;98.00;;;;;;5008481;28;20509;-75
2021/09/15 12:06:01;;;;;;;1.57;1.50;;;21.20;98.00;;;;;;5009991;28;20522;-75
2021/09/15 12:08:29;;;;;;;1.90;1.67;;;21.30;98.00;;;;;;5009741;28;20452;-75
2021/09/15 12:11:00;;;;;;;1.97;1.50;;;21.30;98.00;;;;;;5010271;28;20452;-75
2021/09/15 12:13:29;;;;;;;2.30;1.87;;;21.30;98.00;;;;;;5009090;28;20491;-75
2021/09/15 12:15:56;;;;;;;1.33;1.27;;;21.30;98.00;;;;;;5009854;28;20954;-75
2021/09/15 12:18:38;;;;;;;1.50;1.33;;;21.40;98.00;;;;;;5007649;28;21044;-74
2021/09/15 12:21:07;;;;;;;2.23;1.40;;;21.40;98.00;;;;;;5001979;28;20467;-76
2021/09/15 12:23:36;;;;;;;2.13;1.83;;;21.40;98.00;;;;;;5007730;28;20468;-76
2021/09/15 12:26:06;;;;;;;1.20;1.20;;;21.30;98.00;;;;;;5009310;28;20468;-76
2021/09/15 12:28:33;;;;;;;1.73;1.50;;;21.30;98.00;;;;;;5009229;28;20462;-76
2021/09/15 12:31:03;;;;;;;1.77;1.40;;;21.50;98.00;;;;;;5009805;28;20986;-77
2021/09/15 12:33:32;;;;;;;1.70;1.60;;;21.50;98.00;;;;;;5008792;28;20499;-74
2021/09/15 12:36:10;;;;;;;2.17;1.43;;;21.60;98.00;;;;;;5008943;28;20503;-74
2021/09/15 12:38:46;;;;;;;2.50;1.70;;;21.70;98.00;;;;;;5008893;28;20522;-75
2021/09/15 12:41:15;;;;;;;2.07;1.53;;;21.70;98.00;;;;;;5008256;28;20495;-75
2021/09/15 12:43:42;;;;;;;1.50;1.30;;;21.90;98.00;;;;;;5008555;28;20486;-74
2021/09/15 12:46:26;;;;;;;1.60;1.40;;;22.10;98.00;;;;;;5008396;28;20463;-75
2021/09/15 12:48:53;;;;;;;2.17;1.40;;;22.40;98.00;;;;;;5008626;28;20561;-75
2021/09/15 12:51:21;;;;;;;1.70;1.60;;;22.80;98.00;;;;;;5005294;28;20452;-75
2021/09/15 12:53:50;;;;;;;2.20;1.43;;;23.10;98.00;;;;;;5015636;28;20571;-75
2021/09/15 12:56:21;;;;;;;1.77;1.40;;;23.20;98.00;;;;;;5026259;28;20451;-75
2021/09/15 12:58:50;;;;;;;1.87;1.80;;;23.20;98.00;;;;;;5020598;28;20527;-76
2021/09/15 13:01:21;;;;;;;1.53;1.50;;;23.20;98.00;;;;;;5024452;28;20536;-75
2021/09/15 13:03:52;;;;;;;2.80;1.80;;;23.40;98.00;;;;;;5011241;28;20459;-76
2021/09/15 13:06:19;;;;;;;1.80;1.47;;;23.70;98.00;;;;;;5002447;28;20543;-75